sensor_id;sensor_type;location;lat;lon;timestamp;temperature;humidity
70851;DHT22;58475;49.662;9.636;2024-03-25T00:01:05;6.05;88.84
70851;DHT22;58475;49.662;9.636;2024-03-25T00:03:30;6.01;88.53
70851;DHT22;58475;49.662;9.636;2024-03-25T00:05:56;6.10;88.07
70851;DHT22;58475;49.662;9.636;2024-03-25T00:08:22;6.02;88.53
70851;DHT22;58475;49.662;9.636;2024-03-25T00:10:47;6.06;88.46
70851;DHT22;58475;49.662;9.636;2024-03-25T00:13:13;6.02;88.66
70851;DHT22;58475;49.662;9.636;2024-03-25T00:15:38;6.05;88.02
70851;DHT22;58475;49.662;9.636;2024-03-25T00:18:04;6.09;87.92
70851;DHT22;58475;49.662;9.636;2024-03-25T00:20:29;6.07;87.74
70851;DHT22;58475;49.662;9.636;2024-03-25T00:22:55;6.12;87.91
70851;DHT22;58475;49.662;9.636;2024-03-25T00:25:20;6.02;87.58
70851;DHT22;58475;49.662;9.636;2024-03-25T00:27:46;5.99;88.04
70851;DHT22;58475;49.662;9.636;2024-03-25T00:30:12;6.02;88.27
70851;DHT22;58475;49.662;9.636;2024-03-25T00:32:37;5.99;88.17
70851;DHT22;58475;49.662;9.636;2024-03-25T00:35:03;5.99;88.00
70851;DHT22;58475;49.662;9.636;2024-03-25T00:37:29;6.01;88.18
70851;DHT22;58475;49.662;9.636;2024-03-25T00:39:54;6.01;87.83
70851;DHT22;58475;49.662;9.636;2024-03-25T00:42:19;6.06;87.66
70851;DHT22;58475;49.662;9.636;2024-03-25T00:44:45;5.99;88.22
70851;DHT22;58475;49.662;9.636;2024-03-25T00:47:10;6.01;87.46
70851;DHT22;58475;49.662;9.636;2024-03-25T00:49:36;6.03;87.69
70851;DHT22;58475;49.662;9.636;2024-03-25T00:52:01;6.07;87.66
70851;DHT22;58475;49.662;9.636;2024-03-25T00:54:27;6.13;86.88
70851;DHT22;58475;49.662;9.636;2024-03-25T00:56:52;6.13;87.28
70851;DHT22;58475;49.662;9.636;2024-03-25T00:59:18;6.06;87.30
70851;DHT22;58475;49.662;9.636;2024-03-25T01:01:44;6.07;87.04
70851;DHT22;58475;49.662;9.636;2024-03-25T01:04:09;6.12;87.03
70851;DHT22;58475;49.662;9.636;2024-03-25T01:06:35;6.14;86.58
70851;DHT22;58475;49.662;9.636;2024-03-25T01:09:00;6.14;86.97
70851;DHT22;58475;49.662;9.636;2024-03-25T01:11:26;6.16;87.14
70851;DHT22;58475;49.662;9.636;2024-03-25T01:13:51;6.03;87.11
70851;DHT22;58475;49.662;9.636;2024-03-25T01:16:16;6.10;87.23
70851;DHT22;58475;49.662;9.636;2024-03-25T01:18:42;6.05;87.50
70851;DHT22;58475;49.662;9.636;2024-03-25T01:21:08;5.99;87.56
70851;DHT22;58475;49.662;9.636;2024-03-25T01:23:33;5.96;87.62
70851;DHT22;58475;49.662;9.636;2024-03-25T01:25:59;5.93;87.68
70851;DHT22;58475;49.662;9.636;2024-03-25T01:28:25;5.91;87.56
70851;DHT22;58475;49.662;9.636;2024-03-25T01:30:51;5.82;87.44
70851;DHT22;58475;49.662;9.636;2024-03-25T01:33:16;5.83;87.58
70851;DHT22;58475;49.662;9.636;2024-03-25T01:35:42;5.85;87.14
70851;DHT22;58475;49.662;9.636;2024-03-25T01:38:07;5.92;86.79
70851;DHT22;58475;49.662;9.636;2024-03-25T01:40:33;5.85;86.72
70851;DHT22;58475;49.662;9.636;2024-03-25T01:43:00;5.82;86.64
70851;DHT22;58475;49.662;9.636;2024-03-25T01:45:31;5.75;86.91
70851;DHT22;58475;49.662;9.636;2024-03-25T01:48:07;5.78;86.65
70851;DHT22;58475;49.662;9.636;2024-03-25T01:50:39;5.72;86.83
70851;DHT22;58475;49.662;9.636;2024-03-25T01:53:06;5.72;86.47
70851;DHT22;58475;49.662;9.636;2024-03-25T01:55:34;5.71;86.20
70851;DHT22;58475;49.662;9.636;2024-03-25T01:58:00;5.69;86.20
70851;DHT22;58475;49.662;9.636;2024-03-25T02:00:26;5.59;86.57
70851;DHT22;58475;49.662;9.636;2024-03-25T02:02:52;5.52;86.71
70851;DHT22;58475;49.662;9.636;2024-03-25T02:05:18;5.45;86.80
70851;DHT22;58475;49.662;9.636;2024-03-25T02:07:44;5.48;86.69
70851;DHT22;58475;49.662;9.636;2024-03-25T02:10:10;5.47;86.85
70851;DHT22;58475;49.662;9.636;2024-03-25T02:12:36;5.38;87.05
70851;DHT22;58475;49.662;9.636;2024-03-25T02:15:04;5.38;87.15
70851;DHT22;58475;49.662;9.636;2024-03-25T02:17:29;5.30;87.54
70851;DHT22;58475;49.662;9.636;2024-03-25T02:19:55;5.24;87.18
70851;DHT22;58475;49.662;9.636;2024-03-25T02:22:20;5.28;86.86
70851;DHT22;58475;49.662;9.636;2024-03-25T02:24:46;5.27;87.13
70851;DHT22;58475;49.662;9.636;2024-03-25T02:27:12;5.13;87.24
70851;DHT22;58475;49.662;9.636;2024-03-25T02:29:40;5.24;86.72
70851;DHT22;58475;49.662;9.636;2024-03-25T02:32:07;5.28;86.24
70851;DHT22;58475;49.662;9.636;2024-03-25T02:34:39;5.23;86.49
70851;DHT22;58475;49.662;9.636;2024-03-25T02:37:06;5.17;86.80
70851;DHT22;58475;49.662;9.636;2024-03-25T02:39:32;5.10;86.75
70851;DHT22;58475;49.662;9.636;2024-03-25T02:41:58;5.10;86.69
70851;DHT22;58475;49.662;9.636;2024-03-25T02:44:24;5.03;87.02
70851;DHT22;58475;49.662;9.636;2024-03-25T02:46:49;5.06;86.97
70851;DHT22;58475;49.662;9.636;2024-03-25T02:49:15;4.99;86.81
70851;DHT22;58475;49.662;9.636;2024-03-25T02:51:40;4.93;86.88
70851;DHT22;58475;49.662;9.636;2024-03-25T02:54:06;4.99;86.62
70851;DHT22;58475;49.662;9.636;2024-03-25T02:56:31;4.97;86.46
70851;DHT22;58475;49.662;9.636;2024-03-25T02:58:56;4.86;86.95
70851;DHT22;58475;49.662;9.636;2024-03-25T03:01:22;4.87;86.76
70851;DHT22;58475;49.662;9.636;2024-03-25T03:03:47;4.93;86.46
70851;DHT22;58475;49.662;9.636;2024-03-25T03:06:12;4.86;86.40
70851;DHT22;58475;49.662;9.636;2024-03-25T03:08:38;4.89;86.23
70851;DHT22;58475;49.662;9.636;2024-03-25T03:11:03;4.79;86.57
70851;DHT22;58475;49.662;9.636;2024-03-25T03:13:29;4.80;86.41
70851;DHT22;58475;49.662;9.636;2024-03-25T03:15:54;4.80;86.33
70851;DHT22;58475;49.662;9.636;2024-03-25T03:18:19;4.83;86.00
70851;DHT22;58475;49.662;9.636;2024-03-25T03:20:45;4.77;86.32
70851;DHT22;58475;49.662;9.636;2024-03-25T03:23:10;4.79;86.07
70851;DHT22;58475;49.662;9.636;2024-03-25T03:25:35;4.76;85.91
70851;DHT22;58475;49.662;9.636;2024-03-25T03:28:01;4.73;86.18
70851;DHT22;58475;49.662;9.636;2024-03-25T03:30:27;4.73;86.44
70851;DHT22;58475;49.662;9.636;2024-03-25T03:32:53;4.71;86.53
70851;DHT22;58475;49.662;9.636;2024-03-25T03:35:18;4.63;86.84
70851;DHT22;58475;49.662;9.636;2024-03-25T03:37:43;4.68;86.80
70851;DHT22;58475;49.662;9.636;2024-03-25T03:40:09;4.66;86.64
70851;DHT22;58475;49.662;9.636;2024-03-25T03:42:36;4.75;86.16
70851;DHT22;58475;49.662;9.636;2024-03-25T03:45:02;4.77;85.77
70851;DHT22;58475;49.662;9.636;2024-03-25T03:47:27;4.89;85.33
70851;DHT22;58475;49.662;9.636;2024-03-25T03:49:52;4.93;85.30
70851;DHT22;58475;49.662;9.636;2024-03-25T03:52:18;4.89;85.35
70851;DHT22;58475;49.662;9.636;2024-03-25T03:54:43;4.85;86.01
70851;DHT22;58475;49.662;9.636;2024-03-25T03:57:08;4.80;86.18
70851;DHT22;58475;49.662;9.636;2024-03-25T03:59:34;4.80;86.12
70851;DHT22;58475;49.662;9.636;2024-03-25T04:01:59;4.92;84.81
70851;DHT22;58475;49.662;9.636;2024-03-25T04:04:25;4.90;85.01
70851;DHT22;58475;49.662;9.636;2024-03-25T04:06:51;4.87;85.22
70851;DHT22;58475;49.662;9.636;2024-03-25T04:09:16;4.86;85.52
70851;DHT22;58475;49.662;9.636;2024-03-25T04:11:41;4.93;85.27
70851;DHT22;58475;49.662;9.636;2024-03-25T04:14:07;4.93;85.02
70851;DHT22;58475;49.662;9.636;2024-03-25T04:16:33;4.90;84.69
70851;DHT22;58475;49.662;9.636;2024-03-25T04:18:59;4.92;83.71
70851;DHT22;58475;49.662;9.636;2024-03-25T04:21:24;4.92;83.56
70851;DHT22;58475;49.662;9.636;2024-03-25T04:23:49;4.99;83.66
70851;DHT22;58475;49.662;9.636;2024-03-25T04:26:15;4.99;82.41
70851;DHT22;58475;49.662;9.636;2024-03-25T04:28:40;4.96;83.39
70851;DHT22;58475;49.662;9.636;2024-03-25T04:31:07;4.86;84.19
70851;DHT22;58475;49.662;9.636;2024-03-25T04:33:33;4.69;84.62
70851;DHT22;58475;49.662;9.636;2024-03-25T04:35:59;4.73;85.19
70851;DHT22;58475;49.662;9.636;2024-03-25T04:38:24;4.49;85.52
70851;DHT22;58475;49.662;9.636;2024-03-25T04:40:50;4.45;85.44
70851;DHT22;58475;49.662;9.636;2024-03-25T04:43:15;4.31;86.10
70851;DHT22;58475;49.662;9.636;2024-03-25T04:45:41;4.10;86.63
70851;DHT22;58475;49.662;9.636;2024-03-25T04:48:07;4.04;86.74
70851;DHT22;58475;49.662;9.636;2024-03-25T04:50:35;3.95;86.34
70851;DHT22;58475;49.662;9.636;2024-03-25T04:53:01;3.91;86.48
70851;DHT22;58475;49.662;9.636;2024-03-25T04:55:27;3.82;86.87
70851;DHT22;58475;49.662;9.636;2024-03-25T04:57:52;3.73;86.91
70851;DHT22;58475;49.662;9.636;2024-03-25T05:00:18;3.66;86.95
70851;DHT22;58475;49.662;9.636;2024-03-25T05:02:43;3.64;87.12
70851;DHT22;58475;49.662;9.636;2024-03-25T05:05:08;3.67;87.01
70851;DHT22;58475;49.662;9.636;2024-03-25T05:07:35;3.67;87.15
70851;DHT22;58475;49.662;9.636;2024-03-25T05:10:01;3.58;87.29
70851;DHT22;58475;49.662;9.636;2024-03-25T05:12:27;3.63;87.03
70851;DHT22;58475;49.662;9.636;2024-03-25T05:14:56;3.51;87.27
70851;DHT22;58475;49.662;9.636;2024-03-25T05:17:21;3.40;87.53
70851;DHT22;58475;49.662;9.636;2024-03-25T05:19:46;3.35;87.71
70851;DHT22;58475;49.662;9.636;2024-03-25T05:22:12;3.28;87.68
70851;DHT22;58475;49.662;9.636;2024-03-25T05:24:38;3.29;87.62
70851;DHT22;58475;49.662;9.636;2024-03-25T05:27:03;3.24;87.98
70851;DHT22;58475;49.662;9.636;2024-03-25T05:29:28;3.25;88.06
70851;DHT22;58475;49.662;9.636;2024-03-25T05:32:01;3.26;88.22
70851;DHT22;58475;49.662;9.636;2024-03-25T05:34:28;3.36;88.56
70851;DHT22;58475;49.662;9.636;2024-03-25T05:36:54;3.66;87.64
70851;DHT22;58475;49.662;9.636;2024-03-25T05:39:19;3.62;87.57
70851;DHT22;58475;49.662;9.636;2024-03-25T05:41:45;3.67;88.11
70851;DHT22;58475;49.662;9.636;2024-03-25T05:44:11;3.87;88.03
70851;DHT22;58475;49.662;9.636;2024-03-25T05:46:36;3.97;87.95
70851;DHT22;58475;49.662;9.636;2024-03-25T05:49:05;4.37;87.24
70851;DHT22;58475;49.662;9.636;2024-03-25T05:51:30;4.63;86.43
70851;DHT22;58475;49.662;9.636;2024-03-25T05:53:56;4.97;85.88
70851;DHT22;58475;49.662;9.636;2024-03-25T05:56:22;5.12;85.73
70851;DHT22;58475;49.662;9.636;2024-03-25T05:58:47;5.13;85.40
70851;DHT22;58475;49.662;9.636;2024-03-25T06:01:13;5.23;85.34
70851;DHT22;58475;49.662;9.636;2024-03-25T06:03:38;5.55;84.62
70851;DHT22;58475;49.662;9.636;2024-03-25T06:06:04;5.65;84.03
70851;DHT22;58475;49.662;9.636;2024-03-25T06:08:29;5.82;83.99
70851;DHT22;58475;49.662;9.636;2024-03-25T06:11:00;5.81;84.15
70851;DHT22;58475;49.662;9.636;2024-03-25T06:13:26;6.03;83.67
70851;DHT22;58475;49.662;9.636;2024-03-25T06:15:51;6.01;83.49
70851;DHT22;58475;49.662;9.636;2024-03-25T06:18:16;6.23;83.42
70851;DHT22;58475;49.662;9.636;2024-03-25T06:20:42;5.98;83.58
70851;DHT22;58475;49.662;9.636;2024-03-25T06:23:07;6.40;83.18
70851;DHT22;58475;49.662;9.636;2024-03-25T06:25:32;6.63;82.18
70851;DHT22;58475;49.662;9.636;2024-03-25T06:27:58;6.89;81.21
70851;DHT22;58475;49.662;9.636;2024-03-25T06:30:24;7.16;79.73
70851;DHT22;58475;49.662;9.636;2024-03-25T06:33:08;7.37;79.65
70851;DHT22;58475;49.662;9.636;2024-03-25T06:35:52;7.64;78.87
70851;DHT22;58475;49.662;9.636;2024-03-25T06:38:17;7.39;78.98
70851;DHT22;58475;49.662;9.636;2024-03-25T06:40:43;7.71;79.55
70851;DHT22;58475;49.662;9.636;2024-03-25T06:43:08;7.98;78.30
70851;DHT22;58475;49.662;9.636;2024-03-25T06:45:33;7.78;78.27
70851;DHT22;58475;49.662;9.636;2024-03-25T06:47:59;8.38;76.67
70851;DHT22;58475;49.662;9.636;2024-03-25T06:50:24;8.57;76.45
70851;DHT22;58475;49.662;9.636;2024-03-25T06:52:50;8.55;76.20
70851;DHT22;58475;49.662;9.636;2024-03-25T06:55:16;8.39;75.60
70851;DHT22;58475;49.662;9.636;2024-03-25T06:57:41;9.13;75.08
70851;DHT22;58475;49.662;9.636;2024-03-25T07:00:07;9.34;73.40
70851;DHT22;58475;49.662;9.636;2024-03-25T07:02:38;9.14;73.75
70851;DHT22;58475;49.662;9.636;2024-03-25T07:05:04;9.35;73.23
70851;DHT22;58475;49.662;9.636;2024-03-25T07:07:29;9.15;72.58
70851;DHT22;58475;49.662;9.636;2024-03-25T07:09:55;9.58;73.55
70851;DHT22;58475;49.662;9.636;2024-03-25T07:12:20;9.46;72.99
70851;DHT22;58475;49.662;9.636;2024-03-25T07:14:45;9.75;72.01
70851;DHT22;58475;49.662;9.636;2024-03-25T07:17:11;10.10;70.43
70851;DHT22;58475;49.662;9.636;2024-03-25T07:19:36;10.16;70.49
70851;DHT22;58475;49.662;9.636;2024-03-25T07:22:02;9.76;71.59
70851;DHT22;58475;49.662;9.636;2024-03-25T07:24:27;9.86;72.74
70851;DHT22;58475;49.662;9.636;2024-03-25T07:26:53;10.44;70.71
70851;DHT22;58475;49.662;9.636;2024-03-25T07:29:18;10.00;70.15
70851;DHT22;58475;49.662;9.636;2024-03-25T07:31:44;10.55;70.26
70851;DHT22;58475;49.662;9.636;2024-03-25T07:34:09;10.86;69.43
70851;DHT22;58475;49.662;9.636;2024-03-25T07:36:37;11.09;66.82
70851;DHT22;58475;49.662;9.636;2024-03-25T07:39:02;10.98;68.08
70851;DHT22;58475;49.662;9.636;2024-03-25T07:41:30;10.71;67.25
70851;DHT22;58475;49.662;9.636;2024-03-25T07:43:56;10.41;69.91
70851;DHT22;58475;49.662;9.636;2024-03-25T07:46:21;10.76;68.83
70851;DHT22;58475;49.662;9.636;2024-03-25T07:48:46;11.15;66.40
70851;DHT22;58475;49.662;9.636;2024-03-25T07:51:12;11.01;66.11
70851;DHT22;58475;49.662;9.636;2024-03-25T07:53:37;10.72;67.92
70851;DHT22;58475;49.662;9.636;2024-03-25T07:56:03;9.59;69.70
70851;DHT22;58475;49.662;9.636;2024-03-25T07:58:30;9.17;69.09
70851;DHT22;58475;49.662;9.636;2024-03-25T08:00:55;8.62;71.57
70851;DHT22;58475;49.662;9.636;2024-03-25T08:03:21;8.36;71.22
70851;DHT22;58475;49.662;9.636;2024-03-25T08:05:47;8.25;72.01
70851;DHT22;58475;49.662;9.636;2024-03-25T08:08:12;7.83;71.99
70851;DHT22;58475;49.662;9.636;2024-03-25T08:10:38;8.57;72.58
70851;DHT22;58475;49.662;9.636;2024-03-25T08:13:03;8.33;70.46
70851;DHT22;58475;49.662;9.636;2024-03-25T08:15:29;8.20;71.94
70851;DHT22;58475;49.662;9.636;2024-03-25T08:17:54;8.96;69.69
70851;DHT22;58475;49.662;9.636;2024-03-25T08:20:20;9.46;69.01
70851;DHT22;58475;49.662;9.636;2024-03-25T08:22:45;10.25;66.22
70851;DHT22;58475;49.662;9.636;2024-03-25T08:25:11;11.12;64.67
70851;DHT22;58475;49.662;9.636;2024-03-25T08:27:37;11.99;64.83
70851;DHT22;58475;49.662;9.636;2024-03-25T08:30:02;12.22;60.66
70851;DHT22;58475;49.662;9.636;2024-03-25T08:32:28;11.46;60.10
70851;DHT22;58475;49.662;9.636;2024-03-25T08:34:54;10.95;62.74
70851;DHT22;58475;49.662;9.636;2024-03-25T08:37:19;10.60;63.04
70851;DHT22;58475;49.662;9.636;2024-03-25T08:39:45;9.52;65.52
70851;DHT22;58475;49.662;9.636;2024-03-25T08:42:13;8.84;65.81
70851;DHT22;58475;49.662;9.636;2024-03-25T08:44:38;9.61;65.59
70851;DHT22;58475;49.662;9.636;2024-03-25T08:47:04;9.66;63.20
70851;DHT22;58475;49.662;9.636;2024-03-25T08:49:29;10.07;65.07
70851;DHT22;58475;49.662;9.636;2024-03-25T08:51:54;10.04;64.91
70851;DHT22;58475;49.662;9.636;2024-03-25T08:54:19;9.63;64.31
70851;DHT22;58475;49.662;9.636;2024-03-25T08:56:45;9.69;66.99
70851;DHT22;58475;49.662;9.636;2024-03-25T08:59:10;10.64;63.57
70851;DHT22;58475;49.662;9.636;2024-03-25T09:01:35;11.54;61.02
70851;DHT22;58475;49.662;9.636;2024-03-25T09:04:01;11.64;61.07
70851;DHT22;58475;49.662;9.636;2024-03-25T09:06:27;11.66;62.91
70851;DHT22;58475;49.662;9.636;2024-03-25T09:08:53;12.05;61.04
70851;DHT22;58475;49.662;9.636;2024-03-25T09:11:36;12.63;59.04
70851;DHT22;58475;49.662;9.636;2024-03-25T09:14:02;13.34;57.64
70851;DHT22;58475;49.662;9.636;2024-03-25T09:16:29;13.25;56.14
70851;DHT22;58475;49.662;9.636;2024-03-25T09:18:55;12.73;56.37
70851;DHT22;58475;49.662;9.636;2024-03-25T09:21:21;12.53;56.53
70851;DHT22;58475;49.662;9.636;2024-03-25T09:23:49;12.22;57.56
70851;DHT22;58475;49.662;9.636;2024-03-25T09:26:14;12.42;57.09
70851;DHT22;58475;49.662;9.636;2024-03-25T09:28:40;12.75;54.73
70851;DHT22;58475;49.662;9.636;2024-03-25T09:31:05;12.29;55.13
70851;DHT22;58475;49.662;9.636;2024-03-25T09:33:31;11.56;59.04
70851;DHT22;58475;49.662;9.636;2024-03-25T09:35:56;11.29;59.36
70851;DHT22;58475;49.662;9.636;2024-03-25T09:38:24;12.25;58.70
70851;DHT22;58475;49.662;9.636;2024-03-25T09:40:52;12.04;55.53
70851;DHT22;58475;49.662;9.636;2024-03-25T09:43:24;11.87;57.32
70851;DHT22;58475;49.662;9.636;2024-03-25T09:45:51;12.33;58.19
70851;DHT22;58475;49.662;9.636;2024-03-25T09:48:18;12.86;56.80
70851;DHT22;58475;49.662;9.636;2024-03-25T09:50:44;13.08;55.68
70851;DHT22;58475;49.662;9.636;2024-03-25T09:53:10;12.77;55.52
70851;DHT22;58475;49.662;9.636;2024-03-25T09:55:35;12.99;57.06
70851;DHT22;58475;49.662;9.636;2024-03-25T09:58:02;12.62;57.53
70851;DHT22;58475;49.662;9.636;2024-03-25T10:00:29;11.69;57.83
70851;DHT22;58475;49.662;9.636;2024-03-25T10:02:55;11.64;58.34
70851;DHT22;58475;49.662;9.636;2024-03-25T10:05:20;10.76;58.67
70851;DHT22;58475;49.662;9.636;2024-03-25T10:07:46;10.99;60.52
70851;DHT22;58475;49.662;9.636;2024-03-25T10:10:11;11.02;59.10
70851;DHT22;58475;49.662;9.636;2024-03-25T10:12:37;11.19;58.78
70851;DHT22;58475;49.662;9.636;2024-03-25T10:15:05;11.37;58.99
70851;DHT22;58475;49.662;9.636;2024-03-25T10:17:31;11.54;59.94
70851;DHT22;58475;49.662;9.636;2024-03-25T10:19:56;11.82;57.03
70851;DHT22;58475;49.662;9.636;2024-03-25T10:22:22;11.81;58.80
70851;DHT22;58475;49.662;9.636;2024-03-25T10:24:48;12.69;58.59
70851;DHT22;58475;49.662;9.636;2024-03-25T10:27:23;12.81;58.73
70851;DHT22;58475;49.662;9.636;2024-03-25T10:29:53;13.17;56.53
70851;DHT22;58475;49.662;9.636;2024-03-25T10:32:19;13.47;56.45
70851;DHT22;58475;49.662;9.636;2024-03-25T10:34:44;13.31;54.85
70851;DHT22;58475;49.662;9.636;2024-03-25T10:37:11;12.24;55.53
70851;DHT22;58475;49.662;9.636;2024-03-25T10:39:50;12.72;56.02
70851;DHT22;58475;49.662;9.636;2024-03-25T10:42:20;12.33;55.48
70851;DHT22;58475;49.662;9.636;2024-03-25T10:44:47;13.27;55.41
70851;DHT22;58475;49.662;9.636;2024-03-25T10:47:19;13.86;54.36
70851;DHT22;58475;49.662;9.636;2024-03-25T10:49:58;14.10;53.34
70851;DHT22;58475;49.662;9.636;2024-03-25T10:52:24;14.09;52.63
70851;DHT22;58475;49.662;9.636;2024-03-25T10:54:51;14.34;52.78
70851;DHT22;58475;49.662;9.636;2024-03-25T10:57:17;14.63;52.94
70851;DHT22;58475;49.662;9.636;2024-03-25T10:59:43;14.48;52.54
70851;DHT22;58475;49.662;9.636;2024-03-25T11:02:09;13.98;52.28
70851;DHT22;58475;49.662;9.636;2024-03-25T11:04:35;13.59;53.75
70851;DHT22;58475;49.662;9.636;2024-03-25T11:07:13;14.09;53.28
70851;DHT22;58475;49.662;9.636;2024-03-25T11:09:39;14.45;49.85
70851;DHT22;58475;49.662;9.636;2024-03-25T11:12:04;14.69;50.82
70851;DHT22;58475;49.662;9.636;2024-03-25T11:14:30;14.37;50.80
70851;DHT22;58475;49.662;9.636;2024-03-25T11:16:58;13.99;51.44
70851;DHT22;58475;49.662;9.636;2024-03-25T11:19:28;13.61;48.82
70851;DHT22;58475;49.662;9.636;2024-03-25T11:21:54;14.02;47.59
70851;DHT22;58475;49.662;9.636;2024-03-25T11:24:29;13.49;50.51
70851;DHT22;58475;49.662;9.636;2024-03-25T11:26:55;13.63;50.11
70851;DHT22;58475;49.662;9.636;2024-03-25T11:29:21;13.65;51.51
70851;DHT22;58475;49.662;9.636;2024-03-25T11:31:49;13.75;48.60
70851;DHT22;58475;49.662;9.636;2024-03-25T11:34:18;13.66;50.29
70851;DHT22;58475;49.662;9.636;2024-03-25T11:36:43;14.50;50.74
70851;DHT22;58475;49.662;9.636;2024-03-25T11:39:09;14.95;49.15
70851;DHT22;58475;49.662;9.636;2024-03-25T11:41:39;15.54;50.54
70851;DHT22;58475;49.662;9.636;2024-03-25T11:44:05;15.05;51.10
70851;DHT22;58475;49.662;9.636;2024-03-25T11:46:31;14.64;48.96
70851;DHT22;58475;49.662;9.636;2024-03-25T11:48:57;14.38;49.81
70851;DHT22;58475;49.662;9.636;2024-03-25T11:51:23;14.34;48.81
70851;DHT22;58475;49.662;9.636;2024-03-25T11:53:50;14.63;50.54
70851;DHT22;58475;49.662;9.636;2024-03-25T11:56:15;14.68;49.10
70851;DHT22;58475;49.662;9.636;2024-03-25T11:58:40;14.47;48.38
70851;DHT22;58475;49.662;9.636;2024-03-25T12:01:06;14.17;52.71
70851;DHT22;58475;49.662;9.636;2024-03-25T12:03:34;14.63;51.18
70851;DHT22;58475;49.662;9.636;2024-03-25T12:05:59;14.38;48.62
70851;DHT22;58475;49.662;9.636;2024-03-25T12:08:26;14.14;50.47
70851;DHT22;58475;49.662;9.636;2024-03-25T12:10:54;14.13;50.16
70851;DHT22;58475;49.662;9.636;2024-03-25T12:13:38;14.14;50.28
70851;DHT22;58475;49.662;9.636;2024-03-25T12:16:06;14.45;51.00
70851;DHT22;58475;49.662;9.636;2024-03-25T12:18:34;14.34;50.76
70851;DHT22;58475;49.662;9.636;2024-03-25T12:21:00;14.06;49.67
70851;DHT22;58475;49.662;9.636;2024-03-25T12:23:29;13.79;50.76
70851;DHT22;58475;49.662;9.636;2024-03-25T12:25:55;13.49;50.40
70851;DHT22;58475;49.662;9.636;2024-03-25T12:28:21;14.07;52.27
70851;DHT22;58475;49.662;9.636;2024-03-25T12:30:53;14.30;52.17
70851;DHT22;58475;49.662;9.636;2024-03-25T12:33:20;14.89;50.84
70851;DHT22;58475;49.662;9.636;2024-03-25T12:35:46;15.15;46.96
70851;DHT22;58475;49.662;9.636;2024-03-25T12:38:25;15.53;49.42
70851;DHT22;58475;49.662;9.636;2024-03-25T12:40:51;15.15;48.08
70851;DHT22;58475;49.662;9.636;2024-03-25T12:43:17;15.00;49.27
70851;DHT22;58475;49.662;9.636;2024-03-25T12:45:42;14.98;48.11
70851;DHT22;58475;49.662;9.636;2024-03-25T12:48:08;14.52;49.07
70851;DHT22;58475;49.662;9.636;2024-03-25T12:50:34;14.51;51.51
70851;DHT22;58475;49.662;9.636;2024-03-25T12:52:59;14.48;49.20
70851;DHT22;58475;49.662;9.636;2024-03-25T12:55:25;14.24;50.59
70851;DHT22;58475;49.662;9.636;2024-03-25T12:57:50;14.27;51.47
70851;DHT22;58475;49.662;9.636;2024-03-25T13:00:16;14.77;52.27
70851;DHT22;58475;49.662;9.636;2024-03-25T13:02:41;14.67;48.48
70851;DHT22;58475;49.662;9.636;2024-03-25T13:05:07;14.67;50.30
70851;DHT22;58475;49.662;9.636;2024-03-25T13:07:33;14.29;49.99
70851;DHT22;58475;49.662;9.636;2024-03-25T13:09:58;14.05;50.26
70851;DHT22;58475;49.662;9.636;2024-03-25T13:12:24;14.31;48.59
70851;DHT22;58475;49.662;9.636;2024-03-25T13:14:49;14.88;46.55
70851;DHT22;58475;49.662;9.636;2024-03-25T13:17:14;15.43;48.27
70851;DHT22;58475;49.662;9.636;2024-03-25T13:19:40;15.86;46.51
70851;DHT22;58475;49.662;9.636;2024-03-25T13:22:05;15.80;48.75
70851;DHT22;58475;49.662;9.636;2024-03-25T13:24:31;16.19;45.02
70851;DHT22;58475;49.662;9.636;2024-03-25T13:26:56;15.70;43.25
70851;DHT22;58475;49.662;9.636;2024-03-25T13:29:22;15.77;45.31
70851;DHT22;58475;49.662;9.636;2024-03-25T13:31:47;15.74;44.41
70851;DHT22;58475;49.662;9.636;2024-03-25T13:34:12;15.81;45.21
70851;DHT22;58475;49.662;9.636;2024-03-25T13:36:37;15.64;45.20
70851;DHT22;58475;49.662;9.636;2024-03-25T13:39:03;15.63;45.32
70851;DHT22;58475;49.662;9.636;2024-03-25T13:41:28;15.64;46.92
70851;DHT22;58475;49.662;9.636;2024-03-25T13:43:54;16.05;45.77
70851;DHT22;58475;49.662;9.636;2024-03-25T13:46:19;15.87;44.16
70851;DHT22;58475;49.662;9.636;2024-03-25T13:48:46;15.46;43.86
70851;DHT22;58475;49.662;9.636;2024-03-25T13:51:12;14.98;44.39
70851;DHT22;58475;49.662;9.636;2024-03-25T13:53:37;14.52;44.92
70851;DHT22;58475;49.662;9.636;2024-03-25T13:56:03;14.20;45.86
70851;DHT22;58475;49.662;9.636;2024-03-25T13:58:28;14.06;47.72
70851;DHT22;58475;49.662;9.636;2024-03-25T14:00:53;13.86;47.33
70851;DHT22;58475;49.662;9.636;2024-03-25T14:03:20;13.99;48.31
70851;DHT22;58475;49.662;9.636;2024-03-25T14:05:46;13.52;46.85
70851;DHT22;58475;49.662;9.636;2024-03-25T14:08:11;13.70;48.07
70851;DHT22;58475;49.662;9.636;2024-03-25T14:10:37;13.93;48.10
70851;DHT22;58475;49.662;9.636;2024-03-25T14:13:02;14.06;48.77
70851;DHT22;58475;49.662;9.636;2024-03-25T14:15:28;13.78;47.63
70851;DHT22;58475;49.662;9.636;2024-03-25T14:17:54;13.95;49.25
70851;DHT22;58475;49.662;9.636;2024-03-25T14:20:19;14.30;49.25
70851;DHT22;58475;49.662;9.636;2024-03-25T14:22:44;14.45;44.28
70851;DHT22;58475;49.662;9.636;2024-03-25T14:25:10;14.48;46.00
70851;DHT22;58475;49.662;9.636;2024-03-25T14:27:35;14.96;44.47
70851;DHT22;58475;49.662;9.636;2024-03-25T14:30:01;14.95;43.99
70851;DHT22;58475;49.662;9.636;2024-03-25T14:32:26;14.92;45.37
70851;DHT22;58475;49.662;9.636;2024-03-25T14:34:52;15.08;44.22
70851;DHT22;58475;49.662;9.636;2024-03-25T14:37:17;15.19;43.48
70851;DHT22;58475;49.662;9.636;2024-03-25T14:39:43;14.98;45.55
70851;DHT22;58475;49.662;9.636;2024-03-25T14:42:09;15.18;45.96
70851;DHT22;58475;49.662;9.636;2024-03-25T14:44:37;15.61;44.17
70851;DHT22;58475;49.662;9.636;2024-03-25T14:47:03;15.33;42.45
70851;DHT22;58475;49.662;9.636;2024-03-25T14:49:29;15.20;43.70
70851;DHT22;58475;49.662;9.636;2024-03-25T14:51:55;15.13;41.35
70851;DHT22;58475;49.662;9.636;2024-03-25T14:54:20;14.84;43.70
70851;DHT22;58475;49.662;9.636;2024-03-25T14:56:46;14.65;43.93
70851;DHT22;58475;49.662;9.636;2024-03-25T14:59:11;15.00;42.59
70851;DHT22;58475;49.662;9.636;2024-03-25T15:01:37;15.08;44.04
70851;DHT22;58475;49.662;9.636;2024-03-25T15:04:03;15.06;45.06
70851;DHT22;58475;49.662;9.636;2024-03-25T15:06:29;14.79;44.14
70851;DHT22;58475;49.662;9.636;2024-03-25T15:08:56;14.96;45.04
70851;DHT22;58475;49.662;9.636;2024-03-25T15:11:21;14.78;44.46
70851;DHT22;58475;49.662;9.636;2024-03-25T15:13:47;15.22;44.30
70851;DHT22;58475;49.662;9.636;2024-03-25T15:16:12;15.19;45.02
70851;DHT22;58475;49.662;9.636;2024-03-25T15:18:37;15.40;43.83
70851;DHT22;58475;49.662;9.636;2024-03-25T15:21:04;15.30;43.81
70851;DHT22;58475;49.662;9.636;2024-03-25T15:23:30;15.25;45.58
70851;DHT22;58475;49.662;9.636;2024-03-25T15:25:57;15.06;45.36
70851;DHT22;58475;49.662;9.636;2024-03-25T15:28:23;14.75;44.15
70851;DHT22;58475;49.662;9.636;2024-03-25T15:30:49;14.63;44.38